createdAt,value
2023-03-13T00:00:56.194Z,26.49
2023-03-13T00:03:24.165Z,26.63
2023-03-13T00:05:52.114Z,26.58
2023-03-13T00:08:20.106Z,26.53
2023-03-13T00:10:47.964Z,26.67
2023-03-13T00:13:16.172Z,26.67
2023-03-13T00:15:44.127Z,26.44
2023-03-13T00:18:13.434Z,26.56
2023-03-13T00:20:41.304Z,26.51
2023-03-13T00:23:09.236Z,26.44
2023-03-13T00:25:39.916Z,26.43
2023-03-13T00:28:07.877Z,26.45
2023-03-13T00:30:35.835Z,26.63
2023-03-13T00:33:03.821Z,26.61
2023-03-13T00:35:33.150Z,26.58
2023-03-13T00:38:01.108Z,26.55
2023-03-13T00:40:29.003Z,26.70
2023-03-13T00:42:56.920Z,26.76
2023-03-13T00:45:24.905Z,26.41
2023-03-13T00:47:52.955Z,26.36
2023-03-13T00:50:20.889Z,26.71
2023-03-13T00:52:50.244Z,26.38
2023-03-13T00:55:18.225Z,26.28
2023-03-13T00:57:46.190Z,26.43
2023-03-13T01:00:16.283Z,26.42
2023-03-13T01:02:44.462Z,26.46
2023-03-13T01:05:13.377Z,26.27
2023-03-13T01:07:41.352Z,26.64
2023-03-13T01:10:11.740Z,26.48
2023-03-13T01:12:39.685Z,26.37
2023-03-13T01:15:09.881Z,26.39
2023-03-13T01:17:37.777Z,26.41
2023-03-13T01:20:07.939Z,26.63
2023-03-13T01:22:35.887Z,26.74
2023-03-13T01:25:03.807Z,26.26
2023-03-13T01:27:33.243Z,26.65
2023-03-13T01:30:01.089Z,26.29
2023-03-13T01:32:29.125Z,26.68
2023-03-13T01:34:57.080Z,26.80
2023-03-13T01:37:25.046Z,26.51
2023-03-13T01:39:52.964Z,26.97
2023-03-13T01:42:20.952Z,26.71
2023-03-13T01:44:53.906Z,26.62
2023-03-13T01:47:21.860Z,26.46
2023-03-13T01:49:49.865Z,26.38
2023-03-13T01:52:18.953Z,26.41
2023-03-13T01:54:48.156Z,26.20
2023-03-13T01:57:17.958Z,26.67
2023-03-13T01:59:47.207Z,26.62
2023-03-13T02:02:16.669Z,26.44
2023-03-13T02:04:46.855Z,26.79
2023-03-13T02:07:17.537Z,26.46
2023-03-13T02:09:46.944Z,26.48
2023-03-13T02:12:16.012Z,26.66
2023-03-13T02:14:45.219Z,26.66
2023-03-13T02:17:13.369Z,26.56
2023-03-13T02:20:01.301Z,26.42
2023-03-13T02:22:30.738Z,26.48
2023-03-13T02:25:00.869Z,26.27
2023-03-13T02:27:30.275Z,26.68
2023-03-13T02:29:58.234Z,26.51
2023-03-13T02:32:26.587Z,26.54
2023-03-13T02:34:57.828Z,26.69
2023-03-13T02:37:26.209Z,26.70
2023-03-13T02:39:54.187Z,26.62
2023-03-13T02:42:22.266Z,26.88
2023-03-13T02:44:52.280Z,26.31
2023-03-13T02:47:20.688Z,26.60
2023-03-13T02:49:48.744Z,26.52
2023-03-13T02:52:19.139Z,26.56
2023-03-13T02:54:48.579Z,26.78
2023-03-13T02:57:16.555Z,26.83
2023-03-13T02:59:44.591Z,26.60
2023-03-13T03:02:13.974Z,26.89
2023-03-13T03:04:41.968Z,26.39
2023-03-13T03:07:09.940Z,26.46
2023-03-13T03:09:37.930Z,26.67
2023-03-13T03:12:06.515Z,26.55
2023-03-13T03:14:34.405Z,26.71
2023-03-13T03:17:02.516Z,26.70
2023-03-13T03:19:31.813Z,26.51
2023-03-13T03:22:00.114Z,26.79
2023-03-13T03:24:28.496Z,26.64
2023-03-13T03:26:56.445Z,26.76
2023-03-13T03:29:24.364Z,26.64
2023-03-13T03:31:52.366Z,26.25
2023-03-13T03:34:20.337Z,26.48
2023-03-13T03:36:49.650Z,26.25
2023-03-13T03:39:17.542Z,26.50
2023-03-13T03:41:45.426Z,26.21
2023-03-13T03:44:13.307Z,26.87
2023-03-13T03:46:41.427Z,26.52
2023-03-13T03:49:09.404Z,26.41
2023-03-13T03:51:37.288Z,26.39
2023-03-13T03:54:06.720Z,26.29
2023-03-13T03:56:34.694Z,26.41
2023-03-13T03:59:02.690Z,26.72
2023-03-13T04:01:30.686Z,26.66
2023-03-13T04:03:58.643Z,26.44
2023-03-13T04:06:26.637Z,26.38
2023-03-13T04:08:55.585Z,26.70
2023-03-13T04:11:24.891Z,26.53
2023-03-13T04:13:52.817Z,26.59
2023-03-13T04:16:20.935Z,27.18
2023-03-13T04:18:48.897Z,26.73
2023-03-13T04:21:16.932Z,26.21
2023-03-13T04:23:44.903Z,26.47
2023-03-13T04:26:12.824Z,26.44
2023-03-13T04:28:42.200Z,26.70
2023-03-13T04:31:10.182Z,26.61
2023-03-13T04:33:38.150Z,26.41
2023-03-13T04:36:06.891Z,26.60
2023-03-13T04:38:34.866Z,26.52
2023-03-13T04:41:02.757Z,26.33
2023-03-13T04:43:30.621Z,26.32
2023-03-13T04:45:59.896Z,26.33
2023-03-13T04:48:27.899Z,26.50
2023-03-13T04:50:55.924Z,26.52
2023-03-13T04:53:23.804Z,26.29
2023-03-13T04:55:51.803Z,26.21
2023-03-13T04:58:19.792Z,26.16
2023-03-13T05:00:50.428Z,26.56
2023-03-13T05:03:19.764Z,26.87
2023-03-13T05:05:47.770Z,26.69
2023-03-13T05:08:15.723Z,26.20
2023-03-13T05:10:43.902Z,26.27
2023-03-13T05:13:11.869Z,26.38
2023-03-13T05:15:39.821Z,26.36
2023-03-13T05:18:07.873Z,26.50
2023-03-13T05:20:37.308Z,26.37
2023-03-13T05:23:05.262Z,26.77
2023-03-13T05:25:33.754Z,26.58
2023-03-13T05:28:01.811Z,27.12
2023-03-13T05:30:29.709Z,26.48
2023-03-13T05:32:58.127Z,26.36
2023-03-13T05:35:26.216Z,26.72
2023-03-13T05:37:55.691Z,26.55
2023-03-13T05:40:23.684Z,26.48
2023-03-13T05:42:51.667Z,26.50
2023-03-13T05:45:19.713Z,26.55
2023-03-13T05:47:47.769Z,26.69
2023-03-13T05:50:15.740Z,26.45
2023-03-13T05:52:43.682Z,26.42
2023-03-13T05:55:13.004Z,26.40
2023-03-13T05:57:41.037Z,26.35
2023-03-13T06:00:10.253Z,26.18
2023-03-13T06:02:38.121Z,26.40
2023-03-13T06:05:06.855Z,26.49
2023-03-13T06:07:35.402Z,26.75
2023-03-13T06:10:03.458Z,26.05
2023-03-13T06:12:32.875Z,26.36
2023-03-13T06:15:00.841Z,26.46
2023-03-13T06:17:28.879Z,26.13
2023-03-13T06:19:56.978Z,26.48
2023-03-13T06:22:24.988Z,26.07
2023-03-13T06:24:52.927Z,26.45
2023-03-13T06:27:20.775Z,26.43
2023-03-13T06:29:50.112Z,26.02
2023-03-13T06:32:18.195Z,26.30
2023-03-13T06:34:46.143Z,26.49
2023-03-13T06:37:14.099Z,25.93
2023-03-13T06:39:42.082Z,26.48
2023-03-13T06:42:10.113Z,26.07
2023-03-13T06:44:38.054Z,25.89
2023-03-13T06:47:07.845Z,26.13
2023-03-13T06:49:35.943Z,25.75
2023-03-13T06:52:03.860Z,26.16
2023-03-13T06:54:31.886Z,26.01
2023-03-13T06:56:59.829Z,25.58
2023-03-13T06:59:27.956Z,25.62
2023-03-13T07:01:55.868Z,25.55
2023-03-13T07:04:25.255Z,25.71
2023-03-13T07:06:53.255Z,25.72
2023-03-13T07:09:21.198Z,25.79
2023-03-13T07:11:49.252Z,25.71
2023-03-13T07:14:17.854Z,25.60
2023-03-13T07:16:46.193Z,26.15
2023-03-13T07:19:14.433Z,25.90
2023-03-13T07:21:44.202Z,26.12
2023-03-13T07:24:12.385Z,25.58
2023-03-13T07:26:42.669Z,25.94
2023-03-13T07:29:16.689Z,25.87
2023-03-13T07:31:44.697Z,25.83
2023-03-13T07:34:12.704Z,25.91
2023-03-13T07:36:41.668Z,25.71
2023-03-13T07:39:11.148Z,26.09
2023-03-13T07:41:40.056Z,25.75
2023-03-13T07:44:08.127Z,25.69
2023-03-13T07:46:36.031Z,25.92
2023-03-13T07:49:03.996Z,25.92
2023-03-13T07:51:43.034Z,25.99
2023-03-13T07:54:13.488Z,25.80
2023-03-13T07:56:41.478Z,25.92
2023-03-13T07:59:09.543Z,25.98
2023-03-13T08:01:37.657Z,25.92
2023-03-13T08:04:06.293Z,25.69
2023-03-13T08:06:35.658Z,25.86
2023-03-13T08:09:03.806Z,26.00
2023-03-13T08:11:33.201Z,25.54
2023-03-13T08:14:01.112Z,26.03
2023-03-13T08:16:29.833Z,25.67
2023-03-13T08:18:58.638Z,25.63
2023-03-13T08:21:27.780Z,25.85
2023-03-13T08:23:56.783Z,25.59
2023-03-13T08:26:25.868Z,25.67
2023-03-13T08:28:56.108Z,25.72
2023-03-13T08:31:24.754Z,25.96
2023-03-13T08:33:52.848Z,25.65
2023-03-13T08:36:23.213Z,25.93
2023-03-13T08:38:51.292Z,25.88
2023-03-13T08:41:20.147Z,25.86
2023-03-13T08:43:48.113Z,25.92
2023-03-13T08:46:19.605Z,25.74
2023-03-13T08:48:50.447Z,25.91
2023-03-13T08:51:18.405Z,25.68
2023-03-13T08:53:46.457Z,25.48
2023-03-13T08:56:15.320Z,25.77
2023-03-13T08:58:43.326Z,25.76
2023-03-13T09:01:12.281Z,25.61
2023-03-13T09:03:41.820Z,25.64
2023-03-13T09:06:09.853Z,25.58
2023-03-13T09:08:38.036Z,25.53
2023-03-13T09:11:06.924Z,25.56
2023-03-13T09:13:36.109Z,25.62
2023-03-13T09:16:04.779Z,25.56
2023-03-13T09:18:32.920Z,25.44
2023-03-13T09:21:02.335Z,25.61
2023-03-13T09:23:30.285Z,25.57
2023-03-13T09:25:58.582Z,25.78
2023-03-13T09:28:26.949Z,25.54
2023-03-13T09:30:55.082Z,25.51
2023-03-13T09:33:24.097Z,25.49
2023-03-13T09:35:52.205Z,25.60
2023-03-13T09:38:21.896Z,25.80
2023-03-13T09:41:05.235Z,25.96
2023-03-13T09:43:39.359Z,25.49
2023-03-13T09:46:09.908Z,25.59
2023-03-13T09:48:38.856Z,25.89
2023-03-13T09:51:26.407Z,25.61
2023-03-13T09:53:57.785Z,25.27
2023-03-13T09:56:26.582Z,25.57
2023-03-13T09:58:56.222Z,25.20
2023-03-13T10:01:27.400Z,25.53
2023-03-13T10:04:00.342Z,25.31
2023-03-13T10:06:28.360Z,25.30
2023-03-13T10:09:01.288Z,25.30
2023-03-13T10:11:30.910Z,25.26
2023-03-13T10:14:07.932Z,25.17
2023-03-13T10:16:37.625Z,25.13
2023-03-13T10:19:12.373Z,25.01
2023-03-13T10:21:40.371Z,24.71
2023-03-13T10:24:15.377Z,25.21
2023-03-13T10:26:43.365Z,24.69
2023-03-13T10:29:24.193Z,24.67
2023-03-13T10:31:58.603Z,24.87
2023-03-13T10:34:26.592Z,24.96
2023-03-13T10:36:59.845Z,25.20
2023-03-13T10:39:29.837Z,25.14
2023-03-13T10:42:00.029Z,24.86
2023-03-13T10:44:32.922Z,25.02
2023-03-13T10:47:01.791Z,24.74
2023-03-13T10:49:30.045Z,24.82
2023-03-13T10:52:00.388Z,24.61
2023-03-13T10:54:30.460Z,24.72
2023-03-13T10:57:21.182Z,24.50
2023-03-13T10:59:50.095Z,24.32
2023-03-13T11:02:23.728Z,24.66
2023-03-13T11:04:54.017Z,24.49
2023-03-13T11:07:23.786Z,24.65
2023-03-13T11:10:03.072Z,24.56
2023-03-13T11:12:34.600Z,24.56
2023-03-13T11:15:02.808Z,24.75
2023-03-13T11:17:34.261Z,24.49
2023-03-13T11:20:13.901Z,24.61
2023-03-13T11:22:50.667Z,24.17
2023-03-13T11:25:24.794Z,24.47
2023-03-13T11:28:22.159Z,24.10
2023-03-13T11:31:01.998Z,24.56
2023-03-13T11:33:31.257Z,24.18
2023-03-13T11:36:03.230Z,24.28
2023-03-13T11:38:34.939Z,24.38
2023-03-13T11:41:10.052Z,24.12
2023-03-13T11:44:04.090Z,24.04
2023-03-13T11:46:39.903Z,24.17
2023-03-13T11:49:19.987Z,23.98
2023-03-13T11:51:59.981Z,23.90
2023-03-13T11:54:47.818Z,24.21
2023-03-13T11:57:19.742Z,23.81
2023-03-13T11:59:51.612Z,23.86
2023-03-13T12:02:22.447Z,24.08
2023-03-13T12:04:52.390Z,23.92
2023-03-13T12:07:22.501Z,23.96
2023-03-13T12:09:51.812Z,23.69
2023-03-13T12:12:24.781Z,24.21
2023-03-13T12:14:53.717Z,24.00
2023-03-13T12:17:27.821Z,24.42
2023-03-13T12:19:59.228Z,24.29
2023-03-13T12:22:28.744Z,24.41
2023-03-13T12:24:58.030Z,23.90
2023-03-13T12:27:32.670Z,23.94
2023-03-13T12:30:00.747Z,24.00
2023-03-13T12:32:30.934Z,24.39
2023-03-13T12:35:02.058Z,24.35
2023-03-13T12:37:35.322Z,24.35
2023-03-13T12:40:12.093Z,24.18
2023-03-13T12:42:45.359Z,24.56
2023-03-13T12:45:17.514Z,24.52
2023-03-13T12:48:23.426Z,24.42
2023-03-13T12:51:31.501Z,24.50
2023-03-13T12:54:22.922Z,24.50
2023-03-13T12:57:09.788Z,24.12
2023-03-13T12:59:39.830Z,24.09
2023-03-13T13:02:15.802Z,24.32
2023-03-13T13:04:44.437Z,24.53
2023-03-13T13:07:21.595Z,24.19
2023-03-13T13:10:02.668Z,24.14
2023-03-13T13:12:30.675Z,24.61
2023-03-13T13:15:15.804Z,24.16
2023-03-13T13:18:01.740Z,24.58
2023-03-13T13:20:35.146Z,24.52
2023-03-13T13:23:33.629Z,24.09
2023-03-13T13:26:47.766Z,24.39
2023-03-13T13:29:56.096Z,24.27
2023-03-13T13:32:49.323Z,24.19
2023-03-13T13:35:30.858Z,23.94
2023-03-13T13:38:40.443Z,24.17
2023-03-13T13:41:29.070Z,23.98
2023-03-13T13:44:25.558Z,24.01
2023-03-13T13:46:54.076Z,24.07
2023-03-13T13:49:23.591Z,24.50
2023-03-13T13:52:30.794Z,24.32
2023-03-13T13:54:58.806Z,24.44
2023-03-13T13:57:27.426Z,24.19
2023-03-13T13:59:57.670Z,24.24
2023-03-13T14:02:26.103Z,24.42
2023-03-13T14:04:57.476Z,24.31
2023-03-13T14:07:28.783Z,24.16
2023-03-13T14:10:02.245Z,24.17
2023-03-13T14:12:31.448Z,24.01
2023-03-13T14:15:19.208Z,24.40
2023-03-13T14:17:48.305Z,24.10
2023-03-13T14:20:35.742Z,24.23
2023-03-13T14:23:04.674Z,23.95
2023-03-13T14:25:43.702Z,23.99
2023-03-13T14:28:19.176Z,24.28
2023-03-13T14:30:47.551Z,24.24
2023-03-13T14:33:15.541Z,24.28
2023-03-13T14:35:44.923Z,24.20
2023-03-13T14:38:20.174Z,24.25
2023-03-13T14:40:48.196Z,24.25
2023-03-13T14:43:21.926Z,23.84
2023-03-13T14:45:50.311Z,24.11
2023-03-13T14:48:21.788Z,23.69
2023-03-13T14:50:53.120Z,23.86
2023-03-13T14:53:23.914Z,23.82
2023-03-13T14:56:11.615Z,23.72
2023-03-13T14:58:39.592Z,23.79
2023-03-13T15:01:15.783Z,23.41
2023-03-13T15:03:47.047Z,23.67
2023-03-13T15:06:20.613Z,23.28
2023-03-13T15:08:49.500Z,23.51
2023-03-13T15:11:21.951Z,23.53
2023-03-13T15:13:49.884Z,23.22
2023-03-13T15:16:20.294Z,23.56
2023-03-13T15:18:48.394Z,23.25
2023-03-13T15:21:26.336Z,22.98
2023-03-13T15:23:55.019Z,23.20
2023-03-13T15:26:23.081Z,23.16
2023-03-13T15:28:51.069Z,23.18
2023-03-13T15:31:18.981Z,23.10
2023-03-13T15:33:47.023Z,23.25
2023-03-13T15:36:15.061Z,23.20
2023-03-13T15:38:44.575Z,23.26
2023-03-13T15:41:12.476Z,23.58
2023-03-13T15:43:40.490Z,23.20
2023-03-13T15:46:12.288Z,23.28
2023-03-13T15:48:41.498Z,23.31
2023-03-13T15:51:11.456Z,23.32
2023-03-13T15:53:39.487Z,23.84
2023-03-13T15:56:13.124Z,23.76
2023-03-13T15:58:41.138Z,23.38
2023-03-13T16:01:11.290Z,23.58
2023-03-13T16:03:39.634Z,23.83
2023-03-13T16:06:17.258Z,23.88
2023-03-13T16:08:45.353Z,24.03
2023-03-13T16:11:16.169Z,24.14
2023-03-13T16:13:44.082Z,24.28
2023-03-13T16:16:20.321Z,24.10
2023-03-13T16:18:48.701Z,24.03
2023-03-13T16:21:21.189Z,24.18
2023-03-13T16:23:49.263Z,24.23
2023-03-13T16:26:20.550Z,24.51
2023-03-13T16:28:48.605Z,24.51
2023-03-13T16:31:18.253Z,24.29
2023-03-13T16:33:46.411Z,24.37
2023-03-13T16:36:16.366Z,24.90
2023-03-13T16:38:44.400Z,25.22
2023-03-13T16:41:16.621Z,25.14
2023-03-13T16:43:46.053Z,25.01
2023-03-13T16:46:15.014Z,25.34
2023-03-13T16:48:43.000Z,24.97
2023-03-13T16:51:18.332Z,25.00
2023-03-13T16:53:47.505Z,25.20
2023-03-13T16:56:26.117Z,24.94
2023-03-13T16:58:55.578Z,25.30
2023-03-13T17:01:24.949Z,25.35
2023-03-13T17:03:53.115Z,25.47
2023-03-13T17:06:22.246Z,25.51
2023-03-13T17:08:50.513Z,25.27
2023-03-13T17:11:19.479Z,25.65
2023-03-13T17:13:47.916Z,25.41
2023-03-13T17:16:18.507Z,25.23
2023-03-13T17:18:47.601Z,25.23
2023-03-13T17:21:16.967Z,25.58
2023-03-13T17:23:45.013Z,25.26
2023-03-13T17:26:16.020Z,25.64
2023-03-13T17:28:44.036Z,25.52
2023-03-13T17:31:12.111Z,25.81
2023-03-13T17:33:41.660Z,25.64
2023-03-13T17:36:17.586Z,25.39
2023-03-13T17:38:45.618Z,25.82
2023-03-13T17:41:14.171Z,25.51
2023-03-13T17:43:42.427Z,25.45
2023-03-13T17:46:18.528Z,25.58
2023-03-13T17:48:48.055Z,25.25
2023-03-13T17:51:17.565Z,25.37
2023-03-13T17:53:45.512Z,25.56
2023-03-13T17:56:17.534Z,25.35
2023-03-13T17:58:45.608Z,25.53
2023-03-13T18:01:14.718Z,25.38
2023-03-13T18:03:43.115Z,25.46
2023-03-13T18:06:24.312Z,25.85
2023-03-13T18:08:53.136Z,25.44
2023-03-13T18:11:21.459Z,25.47
2023-03-13T18:13:49.804Z,25.42
2023-03-13T18:16:26.198Z,25.43
2023-03-13T18:18:54.457Z,25.41
2023-03-13T18:21:24.174Z,25.32
2023-03-13T18:23:53.467Z,25.55
2023-03-13T18:26:23.820Z,25.71
2023-03-13T18:28:52.596Z,25.71
2023-03-13T18:31:20.664Z,25.65
2023-03-13T18:33:48.651Z,25.87
2023-03-13T18:36:20.423Z,25.93
2023-03-13T18:38:49.963Z,26.08
2023-03-13T18:41:17.986Z,25.70
2023-03-13T18:43:45.884Z,26.04
2023-03-13T18:46:16.188Z,25.86
2023-03-13T18:48:44.102Z,26.13
2023-03-13T18:51:14.799Z,25.82
2023-03-13T18:53:42.952Z,25.69
2023-03-13T18:56:19.528Z,25.94
2023-03-13T18:58:50.238Z,26.04
2023-03-13T19:01:19.188Z,26.14
2023-03-13T19:03:47.140Z,25.58
2023-03-13T19:06:22.947Z,25.61
2023-03-13T19:08:51.738Z,25.81
2023-03-13T19:11:22.494Z,25.72
2023-03-13T19:13:50.511Z,25.55
2023-03-13T19:16:19.762Z,25.61
2023-03-13T19:18:47.869Z,25.57
2023-03-13T19:21:17.893Z,25.79
2023-03-13T19:23:45.882Z,25.53
2023-03-13T19:26:15.966Z,25.57
2023-03-13T19:28:45.442Z,25.69
2023-03-13T19:31:13.820Z,25.40
2023-03-13T19:33:41.752Z,25.32
2023-03-13T19:36:13.933Z,25.61
2023-03-13T19:38:42.435Z,25.48
2023-03-13T19:41:10.648Z,25.44
2023-03-13T19:43:38.642Z,25.60
2023-03-13T19:46:25.474Z,25.57
2023-03-13T19:48:54.643Z,25.63
2023-03-13T19:51:22.770Z,25.26
2023-03-13T19:53:50.665Z,25.16
2023-03-13T19:56:20.824Z,25.38
2023-03-13T19:58:49.235Z,25.10
2023-03-13T20:01:17.978Z,25.47
2023-03-13T20:03:48.096Z,25.38
2023-03-13T20:06:18.013Z,25.33
2023-03-13T20:08:46.520Z,25.26
2023-03-13T20:11:14.614Z,25.17
2023-03-13T20:13:42.685Z,25.29
2023-03-13T20:16:11.963Z,25.01
2023-03-13T20:18:40.053Z,25.11
2023-03-13T20:21:09.417Z,24.83
2023-03-13T20:23:37.402Z,25.27
2023-03-13T20:26:08.424Z,25.03
2023-03-13T20:28:36.567Z,25.21
2023-03-13T20:31:04.729Z,25.10
2023-03-13T20:33:32.868Z,25.06
2023-03-13T20:36:01.223Z,25.24
2023-03-13T20:38:32.857Z,25.17
2023-03-13T20:41:00.815Z,24.91
2023-03-13T20:43:28.857Z,25.11
2023-03-13T20:45:56.903Z,25.10
2023-03-13T20:48:26.275Z,24.83
2023-03-13T20:50:54.509Z,25.18
2023-03-13T20:53:22.722Z,25.11
2023-03-13T20:55:52.089Z,25.06
2023-03-13T20:58:20.774Z,25.26
2023-03-13T21:00:48.888Z,25.29
2023-03-13T21:03:17.634Z,25.08
2023-03-13T21:05:45.693Z,25.35
2023-03-13T21:08:13.718Z,25.05
2023-03-13T21:10:42.015Z,25.14
2023-03-13T21:13:12.261Z,25.16
2023-03-13T21:15:40.625Z,25.04
2023-03-13T21:18:08.609Z,25.14
2023-03-13T21:20:36.597Z,24.89
2023-03-13T21:23:04.573Z,25.42
2023-03-13T21:25:32.682Z,25.08
2023-03-13T21:28:00.824Z,25.07
2023-03-13T21:30:30.236Z,24.98
2023-03-13T21:32:58.240Z,25.04
2023-03-13T21:35:26.206Z,25.22
2023-03-13T21:37:54.144Z,25.24
2023-03-13T21:40:22.161Z,25.21
2023-03-13T21:42:50.528Z,25.20
2023-03-13T21:45:18.765Z,24.90
2023-03-13T21:47:48.079Z,24.88
2023-03-13T21:50:16.062Z,24.96
2023-03-13T21:52:45.525Z,24.98
2023-03-13T21:55:13.729Z,25.13
2023-03-13T21:57:41.962Z,25.09
2023-03-13T22:00:11.648Z,25.06
2023-03-13T22:02:39.618Z,24.83
2023-03-13T22:05:09.688Z,25.02
2023-03-13T22:07:38.303Z,24.94
2023-03-13T22:10:07.114Z,25.24
2023-03-13T22:12:36.018Z,25.09
2023-03-13T22:15:04.041Z,24.97
2023-03-13T22:17:31.950Z,24.98
2023-03-13T22:19:59.861Z,24.98
2023-03-13T22:22:29.247Z,24.92
2023-03-13T22:24:58.622Z,25.10
2023-03-13T22:27:26.679Z,24.94
2023-03-13T22:29:54.629Z,25.20
2023-03-13T22:32:22.614Z,24.71
2023-03-13T22:34:50.588Z,24.76
2023-03-13T22:37:21.729Z,24.67
2023-03-13T22:39:54.024Z,25.00
2023-03-13T22:42:22.029Z,24.65
2023-03-13T22:44:49.962Z,24.86
2023-03-13T22:47:17.905Z,24.82
2023-03-13T22:49:45.858Z,24.89
2023-03-13T22:52:13.890Z,24.86
2023-03-13T22:54:41.789Z,25.02
2023-03-13T22:57:11.140Z,24.54
2023-03-13T22:59:39.082Z,24.75
2023-03-13T23:02:07.025Z,24.71
2023-03-13T23:04:34.978Z,24.52
2023-03-13T23:07:03.025Z,24.92
2023-03-13T23:09:31.054Z,24.91
2023-03-13T23:11:58.963Z,24.70
2023-03-13T23:14:30.361Z,24.56
2023-03-13T23:16:59.114Z,24.93
2023-03-13T23:19:27.079Z,24.84
2023-03-13T23:21:55.071Z,24.82
2023-03-13T23:24:23.044Z,24.82
2023-03-13T23:26:50.969Z,24.63
2023-03-13T23:29:18.904Z,25.04
2023-03-13T23:31:48.283Z,24.74
2023-03-13T23:34:21.786Z,24.94
2023-03-13T23:36:50.096Z,24.69
2023-03-13T23:39:18.084Z,24.81
2023-03-13T23:41:45.954Z,24.81
2023-03-13T23:44:13.907Z,24.75
2023-03-13T23:46:41.841Z,24.61
2023-03-13T23:49:12.881Z,24.56
2023-03-13T23:51:40.913Z,24.50
2023-03-13T23:54:08.971Z,24.61
2023-03-13T23:56:36.887Z,24.59
2023-03-13T23:59:04.965Z,24.72
